createdAt,value
2023-03-06T00:15:43.609Z,7.67
2023-03-06T00:35:50.036Z,6.82
2023-03-06T00:55:56.105Z,8.19
2023-03-06T01:16:02.590Z,8.88
2023-03-06T01:36:09.712Z,9.55
2023-03-06T01:56:16.175Z,10.28
2023-03-06T02:16:34.805Z,10.62
2023-03-06T02:36:31.052Z,11.00
2023-03-06T02:56:38.617Z,10.92
2023-03-06T03:16:45.269Z,10.98
2023-03-06T03:36:51.138Z,11.38
2023-03-06T04:01:26.376Z,13.74
2023-03-06T04:17:02.134Z,11.02
2023-03-06T04:37:08.000Z,11.33
2023-03-06T04:57:13.830Z,11.33
2023-03-06T05:17:19.594Z,11.48
2023-03-06T05:37:25.406Z,12.53
2023-03-06T05:57:31.190Z,11.03
2023-03-06T06:17:37.004Z,11.12
2023-03-06T06:37:42.844Z,11.43
2023-03-06T06:57:48.699Z,10.90
2023-03-06T07:17:54.480Z,11.31
2023-03-06T07:38:00.288Z,11.59
2023-03-06T07:58:06.093Z,12.14
2023-03-06T08:18:11.907Z,11.20
2023-03-06T08:38:17.663Z,10.88
2023-03-06T08:58:23.414Z,11.87
2023-03-06T09:18:29.220Z,10.48
2023-03-06T09:38:35.114Z,10.45
2023-03-06T09:58:40.893Z,10.09
2023-03-06T10:18:46.721Z,9.82
2023-03-06T10:38:52.505Z,7.21
2023-03-06T10:58:58.303Z,5.22
2023-03-06T11:19:04.161Z,7.09
2023-03-06T11:39:09.915Z,7.17
2023-03-06T11:59:15.698Z,6.73
2023-03-06T12:19:21.452Z,6.30
2023-03-06T12:39:27.232Z,6.99
2023-03-06T12:59:33.040Z,5.26
2023-03-06T13:19:38.854Z,5.18
2023-03-06T13:39:45.084Z,4.73
2023-03-06T13:59:57.026Z,7.31
2023-03-06T14:19:56.216Z,4.35
2023-03-06T14:40:02.041Z,4.99
2023-03-06T15:00:07.806Z,6.09
2023-03-06T15:20:13.564Z,5.57
2023-03-06T15:40:19.276Z,5.07
2023-03-06T16:00:27.754Z,4.73
2023-03-06T16:20:30.300Z,5.64
2023-03-06T16:40:36.044Z,6.60
2023-03-06T17:00:41.829Z,6.41
2023-03-06T17:20:47.571Z,7.45
2023-03-06T17:40:53.286Z,7.10
2023-03-06T18:00:59.153Z,7.41
2023-03-06T18:21:05.305Z,9.31
2023-03-06T18:41:11.069Z,6.80
2023-03-06T19:01:22.480Z,7.86
2023-03-06T19:21:18.007Z,7.46
2023-03-06T19:41:23.951Z,7.35
2023-03-06T20:01:29.763Z,8.89
2023-03-06T20:21:35.450Z,7.53
2023-03-06T20:41:41.243Z,7.37
2023-03-06T21:01:47.204Z,7.84
2023-03-06T21:21:54.117Z,8.70
2023-03-06T21:41:59.870Z,7.52
2023-03-06T22:02:05.621Z,8.36
2023-03-06T22:22:11.447Z,8.25
2023-03-06T22:42:17.209Z,11.63
2023-03-06T23:02:22.972Z,7.79
2023-03-06T23:22:28.728Z,7.74
2023-03-06T23:42:34.492Z,7.53
